# Tabular Observed and Forecast Hydrograph Information
#
# Location: Sacramento River - Ord Ferry (ORFC1)
#
# File Generation Time: 05/08/2026 at 09:25 AM PDT
# Data Interval: 1 Hour
#
# Most Recent Date & Time of Maximum Observed: 05/08/2026 at 09:00 AM PDT
# Maximum Observed Stage: 96.82 Feet
# Maximum Observed Flow: 5377 cfs
#
# Earliest Date & Time of Maximum Forecast: 05/10/2026 at 04:00 PM PDT
# Maximum Forecast Stage: 96.95 Feet
# Maximum Forecast Flow: 5728 cfs
#
# OBSERVED
#
# Date & Time (Local) Stage (Feet) Flow (cfs) Trend Observed Status
# ---------------------------------------------------------------------------------
05/03/2026 09 AM PDT 96.73 5121 Normal
05/03/2026 10 AM PDT 96.72 5092 - Normal
05/03/2026 11 AM PDT 96.71 5064 - Normal
05/03/2026 12 PM PDT 96.70 5036 - Normal
05/03/2026 01 PM PDT 96.68 4980 - Normal
05/03/2026 02 PM PDT 96.67 4952 - Normal
05/03/2026 03 PM PDT 96.67 4952 0 Normal
05/03/2026 04 PM PDT 96.68 4980 + Normal
05/03/2026 05 PM PDT 96.68 4980 0 Normal
05/03/2026 06 PM PDT 96.68 4980 0 Normal
05/03/2026 07 PM PDT 96.68 4980 0 Normal
05/03/2026 08 PM PDT 96.68 4980 0 Normal
05/03/2026 09 PM PDT 96.68 4980 0 Normal
05/03/2026 10 PM PDT 96.69 5008 + Normal
05/03/2026 11 PM PDT 96.70 5036 + Normal
05/04/2026 12 AM PDT 96.71 5064 + Normal
05/04/2026 01 AM PDT 96.72 5092 + Normal
05/04/2026 02 AM PDT 96.72 5092 0 Normal
05/04/2026 03 AM PDT 96.72 5092 0 Normal
05/04/2026 04 AM PDT 96.72 5092 0 Normal
05/04/2026 05 AM PDT 96.72 5092 0 Normal
05/04/2026 06 AM PDT 96.72 5092 0 Normal
05/04/2026 07 AM PDT 96.71 5064 - Normal
05/04/2026 08 AM PDT 96.71 5064 0 Normal
05/04/2026 09 AM PDT 96.69 5008 - Normal
05/04/2026 10 AM PDT 96.67 4952 - Normal
05/04/2026 11 AM PDT 96.67 4952 0 Normal
05/04/2026 12 PM PDT 96.67 4952 0 Normal
05/04/2026 01 PM PDT 96.68 4980 + Normal
05/04/2026 02 PM PDT 96.69 5008 + Normal
05/04/2026 03 PM PDT 96.69 5008 0 Normal
05/04/2026 04 PM PDT 96.69 5008 0 Normal
05/04/2026 05 PM PDT 96.69 5008 0 Normal
05/04/2026 06 PM PDT 96.68 4980 - Normal
05/04/2026 07 PM PDT 96.67 4952 - Normal
05/04/2026 08 PM PDT 96.66 4925 - Normal
05/04/2026 09 PM PDT 96.65 4897 - Normal
05/04/2026 10 PM PDT 96.65 4897 0 Normal
05/04/2026 11 PM PDT 96.64 4870 - Normal
05/05/2026 12 AM PDT 96.63 4843 - Normal
05/05/2026 01 AM PDT 96.64 4870 + Normal
05/05/2026 02 AM PDT 96.63 4843 - Normal
05/05/2026 03 AM PDT 96.63 4843 0 Normal
05/05/2026 04 AM PDT 96.63 4843 0 Normal
05/05/2026 05 AM PDT 96.62 4816 - Normal
05/05/2026 06 AM PDT 96.61 4789 - Normal
05/05/2026 07 AM PDT 96.60 4762 - Normal
05/05/2026 08 AM PDT 96.59 4736 - Normal
05/05/2026 09 AM PDT 96.58 4709 - Normal
05/05/2026 10 AM PDT 96.57 4683 - Normal
05/05/2026 11 AM PDT 96.56 4657 - Normal
05/05/2026 12 PM PDT 96.55 4631 - Normal
05/05/2026 01 PM PDT 96.54 4605 - Normal
05/05/2026 02 PM PDT 96.53 4579 - Normal
05/05/2026 03 PM PDT 96.52 4554 - Normal
05/05/2026 04 PM PDT 96.52 4554 0 Normal
05/05/2026 05 PM PDT 96.51 4529 - Normal
05/05/2026 06 PM PDT 96.51 4529 0 Normal
05/05/2026 07 PM PDT 96.51 4529 0 Normal
05/05/2026 08 PM PDT 96.51 4529 0 Normal
05/05/2026 09 PM PDT 96.51 4529 0 Normal
05/05/2026 10 PM PDT 96.51 4529 0 Normal
05/05/2026 11 PM PDT 96.52 4554 + Normal
05/06/2026 12 AM PDT 96.54 4605 + Normal
05/06/2026 01 AM PDT 96.55 4631 + Normal
05/06/2026 02 AM PDT 96.58 4709 + Normal
05/06/2026 03 AM PDT 96.61 4789 + Normal
05/06/2026 04 AM PDT 96.64 4870 + Normal
05/06/2026 05 AM PDT 96.68 4980 + Normal
05/06/2026 06 AM PDT 96.70 5036 + Normal
05/06/2026 07 AM PDT 96.74 5150 + Normal
05/06/2026 08 AM PDT 96.75 5178 + Normal
05/06/2026 09 AM PDT 96.76 5207 + Normal
05/06/2026 10 AM PDT 96.76 5207 0 Normal
05/06/2026 11 AM PDT 96.77 5237 + Normal
05/06/2026 12 PM PDT 96.77 5237 0 Normal
05/06/2026 01 PM PDT 96.78 5266 + Normal
05/06/2026 02 PM PDT 96.78 5266 0 Normal
05/06/2026 03 PM PDT 96.79 5295 + Normal
05/06/2026 04 PM PDT 96.79 5295 0 Normal
05/06/2026 05 PM PDT 96.79 5295 0 Normal
05/06/2026 06 PM PDT 96.79 5295 0 Normal
05/06/2026 07 PM PDT 96.80 5325 + Normal
05/06/2026 08 PM PDT 96.80 5325 0 Normal
05/06/2026 09 PM PDT 96.80 5325 0 Normal
05/06/2026 10 PM PDT 96.80 5325 0 Normal
05/06/2026 11 PM PDT 96.80 5325 0 Normal
05/07/2026 12 AM PDT 96.80 5325 0 Normal
05/07/2026 01 AM PDT 96.80 5325 0 Normal
05/07/2026 02 AM PDT 96.80 5325 0 Normal
05/07/2026 03 AM PDT 96.80 5325 0 Normal
05/07/2026 04 AM PDT 96.79 5295 - Normal
05/07/2026 05 AM PDT 96.79 5295 0 Normal
05/07/2026 06 AM PDT 96.79 5295 0 Normal
05/07/2026 07 AM PDT 96.79 5295 0 Normal
05/07/2026 08 AM PDT 96.79 5295 0 Normal
05/07/2026 09 AM PDT 96.78 5266 - Normal
05/07/2026 10 AM PDT 96.77 5237 - Normal
05/07/2026 11 AM PDT 96.76 5207 - Normal
05/07/2026 12 PM PDT 96.74 5150 - Normal
05/07/2026 01 PM PDT 96.73 5121 - Normal
05/07/2026 02 PM PDT 96.72 5092 - Normal
05/07/2026 03 PM PDT 96.72 5092 0 Normal
05/07/2026 04 PM PDT 96.72 5092 0 Normal
05/07/2026 05 PM PDT 96.72 5092 0 Normal
05/07/2026 06 PM PDT 96.73 5121 + Normal
05/07/2026 07 PM PDT 96.73 5121 0 Normal
05/07/2026 08 PM PDT 96.74 5150 + Normal
05/07/2026 09 PM PDT 96.74 5150 0 Normal
05/07/2026 10 PM PDT 96.74 5150 0 Normal
05/07/2026 11 PM PDT 96.75 5178 + Normal
05/08/2026 12 AM PDT 96.76 5207 + Normal
05/08/2026 01 AM PDT 96.76 5207 0 Normal
05/08/2026 02 AM PDT 96.77 5237 + Normal
05/08/2026 03 AM PDT 96.78 5266 + Normal
05/08/2026 04 AM PDT 96.79 5295 + Normal
05/08/2026 05 AM PDT 96.80 5325 + Normal
05/08/2026 06 AM PDT 96.81 5351 + Normal
05/08/2026 07 AM PDT 96.81 5351 0 Normal
05/08/2026 08 AM PDT 96.81 5351 0 Normal
05/08/2026 09 AM PDT 96.82 5377 + Normal
#
# FORECAST
#
# Date & Time (Local) Stage (Feet) Flow (cfs) Trend Forecast Status
# ---------------------------------------------------------------------------------
05/08/2026 10 AM PDT 96.82 5377 Normal
05/08/2026 11 AM PDT 96.82 5377 0 Normal
05/08/2026 12 PM PDT 96.82 5377 0 Normal
05/08/2026 01 PM PDT 96.82 5377 0 Normal
05/08/2026 02 PM PDT 96.82 5377 0 Normal
05/08/2026 03 PM PDT 96.82 5377 0 Normal
05/08/2026 04 PM PDT 96.82 5377 0 Normal
05/08/2026 05 PM PDT 96.82 5377 0 Normal
05/08/2026 06 PM PDT 96.82 5377 0 Normal
05/08/2026 07 PM PDT 96.82 5377 0 Normal
05/08/2026 08 PM PDT 96.81 5351 - Normal
05/08/2026 09 PM PDT 96.81 5351 0 Normal
05/08/2026 10 PM PDT 96.81 5351 0 Normal
05/08/2026 11 PM PDT 96.81 5351 0 Normal
05/09/2026 12 AM PDT 96.81 5351 0 Normal
05/09/2026 01 AM PDT 96.81 5351 0 Normal
05/09/2026 02 AM PDT 96.81 5351 0 Normal
05/09/2026 03 AM PDT 96.81 5351 0 Normal
05/09/2026 04 AM PDT 96.80 5325 - Normal
05/09/2026 05 AM PDT 96.80 5325 0 Normal
05/09/2026 06 AM PDT 96.80 5325 0 Normal
05/09/2026 07 AM PDT 96.80 5325 0 Normal
05/09/2026 08 AM PDT 96.80 5325 0 Normal
05/09/2026 09 AM PDT 96.80 5325 0 Normal
05/09/2026 10 AM PDT 96.80 5325 0 Normal
05/09/2026 11 AM PDT 96.80 5325 0 Normal
05/09/2026 12 PM PDT 96.79 5295 - Normal
05/09/2026 01 PM PDT 96.79 5295 0 Normal
05/09/2026 02 PM PDT 96.79 5295 0 Normal
05/09/2026 03 PM PDT 96.79 5295 0 Normal
05/09/2026 04 PM PDT 96.79 5295 0 Normal
05/09/2026 05 PM PDT 96.79 5295 0 Normal
05/09/2026 06 PM PDT 96.79 5295 0 Normal
05/09/2026 07 PM PDT 96.79 5295 0 Normal
05/09/2026 08 PM PDT 96.79 5295 0 Normal
05/09/2026 09 PM PDT 96.79 5295 0 Normal
05/09/2026 10 PM PDT 96.79 5295 0 Normal
05/09/2026 11 PM PDT 96.80 5325 + Normal
05/10/2026 12 AM PDT 96.82 5377 + Normal
05/10/2026 01 AM PDT 96.83 5403 + Normal
05/10/2026 02 AM PDT 96.85 5456 + Normal
05/10/2026 03 AM PDT 96.87 5510 + Normal
05/10/2026 04 AM PDT 96.88 5536 + Normal
05/10/2026 05 AM PDT 96.90 5591 + Normal
05/10/2026 06 AM PDT 96.91 5618 + Normal
05/10/2026 07 AM PDT 96.92 5645 + Normal
05/10/2026 08 AM PDT 96.92 5645 0 Normal
05/10/2026 09 AM PDT 96.93 5673 + Normal
05/10/2026 10 AM PDT 96.93 5673 0 Normal
05/10/2026 11 AM PDT 96.94 5700 + Normal
05/10/2026 12 PM PDT 96.94 5700 0 Normal
05/10/2026 01 PM PDT 96.94 5700 0 Normal
05/10/2026 02 PM PDT 96.94 5700 0 Normal
05/10/2026 03 PM PDT 96.94 5700 0 Normal
05/10/2026 04 PM PDT 96.95 5728 + Normal
05/10/2026 05 PM PDT 96.95 5728 0 Normal
05/10/2026 06 PM PDT 96.95 5728 0 Normal
05/10/2026 07 PM PDT 96.95 5728 0 Normal
05/10/2026 08 PM PDT 96.94 5700 - Normal
05/10/2026 09 PM PDT 96.94 5700 0 Normal
05/10/2026 10 PM PDT 96.94 5700 0 Normal
05/10/2026 11 PM PDT 96.94 5700 0 Normal
05/11/2026 12 AM PDT 96.94 5700 0 Normal
05/11/2026 01 AM PDT 96.94 5700 0 Normal
05/11/2026 02 AM PDT 96.94 5700 0 Normal
05/11/2026 03 AM PDT 96.93 5673 - Normal
05/11/2026 04 AM PDT 96.93 5673 0 Normal
05/11/2026 05 AM PDT 96.93 5673 0 Normal
05/11/2026 06 AM PDT 96.93 5673 0 Normal
05/11/2026 07 AM PDT 96.93 5673 0 Normal
05/11/2026 08 AM PDT 96.93 5673 0 Normal
05/11/2026 09 AM PDT 96.93 5673 0 Normal
05/11/2026 10 AM PDT 96.93 5673 0 Normal
05/11/2026 11 AM PDT 96.93 5673 0 Normal
05/11/2026 12 PM PDT 96.93 5673 0 Normal
05/11/2026 01 PM PDT 96.92 5645 - Normal
05/11/2026 02 PM PDT 96.92 5645 0 Normal
05/11/2026 03 PM PDT 96.92 5645 0 Normal
05/11/2026 04 PM PDT 96.92 5645 0 Normal
05/11/2026 05 PM PDT 96.92 5645 0 Normal
05/11/2026 06 PM PDT 96.92 5645 0 Normal
05/11/2026 07 PM PDT 96.92 5645 0 Normal
05/11/2026 08 PM PDT 96.92 5645 0 Normal
05/11/2026 09 PM PDT 96.92 5645 0 Normal
05/11/2026 10 PM PDT 96.92 5645 0 Normal
05/11/2026 11 PM PDT 96.92 5645 0 Normal
05/12/2026 12 AM PDT 96.91 5618 - Normal
05/12/2026 01 AM PDT 96.91 5618 0 Normal
05/12/2026 02 AM PDT 96.91 5618 0 Normal
05/12/2026 03 AM PDT 96.91 5618 0 Normal
05/12/2026 04 AM PDT 96.92 5645 + Normal
05/12/2026 05 AM PDT 96.92 5645 0 Normal
05/12/2026 06 AM PDT 96.92 5645 0 Normal
05/12/2026 07 AM PDT 96.92 5645 0 Normal
05/12/2026 08 AM PDT 96.93 5673 + Normal
05/12/2026 09 AM PDT 96.93 5673 0 Normal
05/12/2026 10 AM PDT 96.93 5673 0 Normal
05/12/2026 11 AM PDT 96.93 5673 0 Normal
05/12/2026 12 PM PDT 96.93 5673 0 Normal
05/12/2026 01 PM PDT 96.93 5673 0 Normal
05/12/2026 02 PM PDT 96.93 5673 0 Normal
05/12/2026 03 PM PDT 96.93 5673 0 Normal
05/12/2026 04 PM PDT 96.92 5645 - Normal
05/12/2026 05 PM PDT 96.92 5645 0 Normal
05/12/2026 06 PM PDT 96.92 5645 0 Normal
05/12/2026 07 PM PDT 96.91 5618 - Normal
05/12/2026 08 PM PDT 96.91 5618 0 Normal
05/12/2026 09 PM PDT 96.90 5591 - Normal
05/12/2026 10 PM PDT 96.90 5591 0 Normal
05/12/2026 11 PM PDT 96.90 5591 0 Normal
05/13/2026 12 AM PDT 96.89 5563 - Normal
05/13/2026 01 AM PDT 96.89 5563 0 Normal
05/13/2026 02 AM PDT 96.89 5563 0 Normal
05/13/2026 03 AM PDT 96.89 5563 0 Normal
05/13/2026 04 AM PDT 96.89 5563 0 Normal
05/13/2026 05 AM PDT 96.88 5536 - Normal
#
# NOTE 1: Stages are rounded to the nearest hundredth (.01) of a foot.
# NOTE 2: Flows are rounded to the nearest (1) cfs.
# NOTE 3: Trends are determined using hourly change in unrounded stage and flow.
# NOTE 4: Maximum Values are determined using unrounded stage and flow.
|